createdAt,value
2023-05-14T00:00:38.954Z,9.68
2023-05-14T00:01:38.984Z,9.68
2023-05-14T00:02:39.066Z,9.66
2023-05-14T00:03:38.991Z,9.64
2023-05-14T00:04:38.965Z,9.62
2023-05-14T00:05:38.904Z,9.59
2023-05-14T00:06:38.896Z,9.61
2023-05-14T00:07:38.903Z,9.61
2023-05-14T00:08:38.843Z,9.61
2023-05-14T00:09:38.830Z,9.61
2023-05-14T00:10:38.817Z,9.62
2023-05-14T00:11:38.816Z,9.62
2023-05-14T00:12:38.814Z,9.62
2023-05-14T00:13:38.790Z,9.64
2023-05-14T00:14:38.772Z,9.62
2023-05-14T00:15:38.797Z,9.61
2023-05-14T00:16:38.799Z,9.62
2023-05-14T00:17:38.782Z,9.64
2023-05-14T00:18:38.747Z,9.65
2023-05-14T00:19:38.725Z,9.66
2023-05-14T00:20:38.711Z,9.68
2023-05-14T00:21:38.688Z,9.69
2023-05-14T00:22:38.670Z,9.69
2023-05-14T00:23:38.649Z,9.72
2023-05-14T00:24:38.665Z,9.72
2023-05-14T00:25:38.734Z,9.72
2023-05-14T00:26:38.616Z,9.73
2023-05-14T00:27:38.610Z,9.73
2023-05-14T00:28:38.580Z,9.73
2023-05-14T00:29:38.559Z,9.73
2023-05-14T00:30:38.571Z,9.76
2023-05-14T00:31:38.591Z,9.74
2023-05-14T00:32:38.549Z,9.73
2023-05-14T00:33:38.517Z,9.76
2023-05-14T00:34:38.493Z,9.77
2023-05-14T00:35:38.508Z,9.79
2023-05-14T00:36:38.462Z,9.82
2023-05-14T00:37:38.449Z,9.83
2023-05-14T00:38:38.452Z,9.82
2023-05-14T00:39:38.426Z,9.84
2023-05-14T00:40:38.450Z,9.84
2023-05-14T00:41:38.392Z,9.86
2023-05-14T00:42:38.410Z,9.86
2023-05-14T00:43:38.386Z,9.87
2023-05-14T00:44:38.406Z,9.89
2023-05-14T00:45:38.364Z,9.86
2023-05-14T00:46:38.415Z,9.87
2023-05-14T00:47:38.353Z,9.89
2023-05-14T00:48:38.294Z,9.87
2023-05-14T00:49:38.298Z,9.89
2023-05-14T00:50:38.298Z,9.87
2023-05-14T00:51:38.312Z,9.84
2023-05-14T00:52:38.262Z,9.83
2023-05-14T00:53:38.241Z,9.82
2023-05-14T00:54:38.229Z,9.82
2023-05-14T00:55:38.224Z,9.82
2023-05-14T00:56:38.222Z,9.80
2023-05-14T00:57:38.221Z,9.80
2023-05-14T00:58:38.233Z,9.79
2023-05-14T00:59:38.158Z,9.80
2023-05-14T01:00:38.160Z,9.79
2023-05-14T01:01:38.151Z,9.77
2023-05-14T01:02:38.262Z,9.77
2023-05-14T01:03:38.219Z,9.76
2023-05-14T01:04:38.112Z,9.74
2023-05-14T01:05:38.096Z,9.74
2023-05-14T01:06:38.092Z,9.73
2023-05-14T01:07:38.074Z,9.74
2023-05-14T01:08:38.043Z,9.73
2023-05-14T01:09:38.049Z,9.74
2023-05-14T01:10:38.032Z,9.74
2023-05-14T01:11:38.004Z,9.76
2023-05-14T01:12:37.993Z,9.76
2023-05-14T01:13:37.996Z,9.74
2023-05-14T01:14:37.949Z,9.74
2023-05-14T01:15:37.944Z,9.74
2023-05-14T01:16:38.023Z,9.74
2023-05-14T01:17:37.950Z,9.76
2023-05-14T01:18:37.925Z,9.74
2023-05-14T01:19:37.927Z,9.73
2023-05-14T01:20:37.885Z,9.73
2023-05-14T01:21:37.907Z,9.73
2023-05-14T01:22:37.862Z,9.74
2023-05-14T01:23:37.833Z,9.73
2023-05-14T01:24:37.858Z,9.74
2023-05-14T01:25:37.815Z,9.74
2023-05-14T01:26:37.810Z,9.76
2023-05-14T01:27:37.779Z,9.76
2023-05-14T01:28:37.760Z,9.77
2023-05-14T01:29:37.777Z,9.77
2023-05-14T01:30:37.761Z,9.79
2023-05-14T01:31:37.777Z,9.80
2023-05-14T01:32:37.756Z,9.80
2023-05-14T01:33:37.754Z,9.79
2023-05-14T01:34:37.694Z,9.79
2023-05-14T01:35:37.665Z,9.74
2023-05-14T01:36:37.668Z,9.74
2023-05-14T01:37:37.638Z,9.73
2023-05-14T01:38:37.666Z,9.72
2023-05-14T01:39:37.650Z,9.68
2023-05-14T01:40:37.644Z,9.68
2023-05-14T01:41:37.594Z,9.69
2023-05-14T01:42:37.602Z,9.66
2023-05-14T01:43:37.676Z,9.66
2023-05-14T01:44:37.558Z,9.66
2023-05-14T01:45:37.598Z,9.66
2023-05-14T01:46:37.631Z,9.66
2023-05-14T01:47:37.537Z,9.68
2023-05-14T01:48:37.510Z,9.65
2023-05-14T01:49:37.490Z,9.62
2023-05-14T01:50:37.481Z,9.64
2023-05-14T01:51:37.467Z,9.65
2023-05-14T01:52:37.473Z,9.65
2023-05-14T01:53:37.425Z,9.66
2023-05-14T01:54:37.413Z,9.68
2023-05-14T01:55:37.383Z,9.69
2023-05-14T01:56:37.374Z,9.73
2023-05-14T01:57:37.375Z,9.69
2023-05-14T01:58:37.391Z,9.72
2023-05-14T01:59:37.377Z,9.72
2023-05-14T02:00:37.319Z,9.73
2023-05-14T02:01:37.334Z,9.74
2023-05-14T02:02:37.337Z,9.74
2023-05-14T02:03:37.374Z,9.74
2023-05-14T02:04:37.279Z,9.69
2023-05-14T02:05:37.257Z,9.68
2023-05-14T02:06:37.258Z,9.65
2023-05-14T02:08:07.784Z,9.64
2023-05-14T02:08:37.252Z,9.65
2023-05-14T02:09:37.208Z,9.64
2023-05-14T02:10:37.215Z,9.64
2023-05-14T02:11:37.188Z,9.64
2023-05-14T02:12:37.165Z,9.65
2023-05-14T02:13:37.183Z,9.65
2023-05-14T02:14:37.139Z,9.65
2023-05-14T02:15:37.183Z,9.65
2023-05-14T02:16:37.107Z,9.68
2023-05-14T02:17:37.145Z,9.65
2023-05-14T02:18:37.169Z,9.66
2023-05-14T02:19:37.067Z,9.65
2023-05-14T02:20:37.068Z,9.64
2023-05-14T02:21:37.039Z,9.62
2023-05-14T02:22:37.033Z,9.62
2023-05-14T02:23:41.639Z,9.59
2023-05-14T02:24:37.006Z,9.59
2023-05-14T02:25:37.022Z,9.59
2023-05-14T02:26:37.058Z,9.58
2023-05-14T02:27:36.971Z,9.56
2023-05-14T02:28:36.958Z,9.55
2023-05-14T02:29:36.956Z,9.54
2023-05-14T02:30:36.970Z,9.50
2023-05-14T02:31:37.006Z,9.50
2023-05-14T02:32:37.006Z,9.47
2023-05-14T02:33:37.018Z,9.46
2023-05-14T02:34:36.874Z,9.41
2023-05-14T02:35:36.881Z,9.40
2023-05-14T02:36:36.845Z,9.39
2023-05-14T02:37:36.843Z,9.37
2023-05-14T02:38:36.830Z,9.34
2023-05-14T02:39:36.826Z,9.36
2023-05-14T02:40:36.812Z,9.37
2023-05-14T02:41:36.821Z,9.39
2023-05-14T02:42:36.778Z,9.37
2023-05-14T02:43:36.780Z,9.34
2023-05-14T02:44:36.748Z,9.34
2023-05-14T02:45:36.728Z,9.34
2023-05-14T02:46:36.799Z,9.32
2023-05-14T02:47:38.219Z,9.32
2023-05-14T02:48:36.723Z,9.32
2023-05-14T02:49:36.703Z,9.31
2023-05-14T02:50:36.654Z,9.31
2023-05-14T02:51:36.635Z,9.31
2023-05-14T02:52:36.687Z,9.29
2023-05-14T02:53:36.657Z,9.32
2023-05-14T02:54:36.611Z,9.34
2023-05-14T02:55:36.585Z,9.34
2023-05-14T02:56:36.568Z,9.32
2023-05-14T02:57:36.599Z,9.31
2023-05-14T02:58:36.553Z,9.31
2023-05-14T02:59:36.550Z,9.29
2023-05-14T03:00:36.581Z,9.29
2023-05-14T03:01:36.512Z,9.28
2023-05-14T03:02:36.587Z,9.26
2023-05-14T03:03:36.487Z,9.26
2023-05-14T03:04:36.478Z,9.26
2023-05-14T03:05:36.495Z,9.22
2023-05-14T03:06:36.429Z,9.22
2023-05-14T03:07:36.428Z,9.21
2023-05-14T03:08:36.458Z,9.22
2023-05-14T03:09:38.280Z,9.19
2023-05-14T03:10:36.421Z,9.16
2023-05-14T03:11:36.418Z,9.16
2023-05-14T03:12:36.356Z,9.13
2023-05-14T03:13:36.393Z,9.10
2023-05-14T03:14:36.335Z,9.06
2023-05-14T03:15:36.329Z,9.04
2023-05-14T03:16:36.377Z,9.03
2023-05-14T03:17:36.403Z,9.02
2023-05-14T03:18:36.353Z,8.95
2023-05-14T03:19:36.274Z,8.89
2023-05-14T03:20:36.279Z,8.87
2023-05-14T03:21:36.240Z,8.82
2023-05-14T03:22:36.229Z,8.79
2023-05-14T03:23:36.221Z,8.78
2023-05-14T03:24:36.230Z,8.74
2023-05-14T03:25:36.393Z,8.71
2023-05-14T03:26:36.162Z,8.70
2023-05-14T03:29:03.756Z,8.66
2023-05-14T03:29:09.137Z,8.63
2023-05-14T03:30:09.119Z,8.60
2023-05-14T03:31:09.141Z,8.56
2023-05-14T03:32:09.055Z,8.55
2023-05-14T03:33:09.056Z,8.55
2023-05-14T03:34:09.041Z,8.58
2023-05-14T03:35:09.037Z,8.60
2023-05-14T03:36:09.046Z,8.63
2023-05-14T03:37:08.992Z,8.63
2023-05-14T03:38:08.993Z,8.69
2023-05-14T03:39:08.966Z,8.70
2023-05-14T03:40:08.978Z,8.70
2023-05-14T03:41:08.972Z,8.74
2023-05-14T03:42:08.929Z,8.74
2023-05-14T03:43:08.959Z,8.79
2023-05-14T03:44:08.908Z,8.81
2023-05-14T03:45:08.952Z,8.82
2023-05-14T03:46:08.900Z,8.82
2023-05-14T03:47:08.858Z,8.82
2023-05-14T03:48:08.934Z,8.84
2023-05-14T03:49:08.949Z,8.84
2023-05-14T03:50:08.823Z,8.84
2023-05-14T03:51:08.864Z,8.85
2023-05-14T03:52:08.794Z,8.87
2023-05-14T03:53:08.784Z,8.88
2023-05-14T03:54:08.787Z,8.89
2023-05-14T03:55:08.753Z,8.88
2023-05-14T03:56:08.747Z,8.91
2023-05-14T03:57:08.736Z,8.92
2023-05-14T03:58:08.746Z,8.94
2023-05-14T03:59:08.702Z,8.97
2023-05-14T04:00:08.695Z,8.95
2023-05-14T04:01:08.678Z,8.97
2023-05-14T04:02:08.669Z,8.99
2023-05-14T04:03:08.744Z,8.99
2023-05-14T04:04:08.708Z,9.02
2023-05-14T04:05:08.638Z,9.03
2023-05-14T04:06:08.645Z,9.03
2023-05-14T04:07:08.604Z,9.03
2023-05-14T04:08:08.604Z,9.06
2023-05-14T04:09:08.622Z,9.06
2023-05-14T04:10:08.572Z,9.08
2023-05-14T04:11:08.551Z,9.11
2023-05-14T04:12:08.587Z,9.11
2023-05-14T04:13:08.557Z,9.16
2023-05-14T04:14:08.493Z,9.16
2023-05-14T04:15:08.514Z,9.14
2023-05-14T04:16:08.532Z,9.14
2023-05-14T04:17:08.471Z,9.14
2023-05-14T04:18:08.475Z,9.13
2023-05-14T04:19:08.535Z,9.13
2023-05-14T04:20:08.457Z,9.13
2023-05-14T04:21:08.416Z,9.13
2023-05-14T04:22:08.410Z,9.14
2023-05-14T04:23:08.395Z,9.16
2023-05-14T04:24:08.403Z,9.18
2023-05-14T04:25:08.359Z,9.21
2023-05-14T04:26:08.354Z,9.21
2023-05-14T04:27:08.337Z,9.23
2023-05-14T04:28:08.355Z,9.25
2023-05-14T04:29:08.300Z,9.25
2023-05-14T04:30:08.314Z,9.26
2023-05-14T04:31:08.304Z,9.28
2023-05-14T04:32:08.301Z,9.31
2023-05-14T04:33:08.298Z,9.32
2023-05-14T04:34:08.237Z,9.34
2023-05-14T04:35:08.233Z,9.36
2023-05-14T04:36:08.237Z,9.37
2023-05-14T04:37:08.185Z,9.41
2023-05-14T04:38:08.192Z,9.43
2023-05-14T04:39:08.169Z,9.47
2023-05-14T04:40:08.162Z,9.48
2023-05-14T04:41:08.163Z,9.51
2023-05-14T04:42:08.116Z,9.55
2023-05-14T04:43:08.119Z,9.56
2023-05-14T04:44:08.099Z,9.58
2023-05-14T04:45:08.104Z,9.59
2023-05-14T04:46:08.140Z,9.64
2023-05-14T04:47:08.070Z,9.64
2023-05-14T04:48:08.139Z,9.66
2023-05-14T04:49:08.025Z,9.66
2023-05-14T04:50:08.035Z,9.68
2023-05-14T04:51:08.019Z,9.72
2023-05-14T04:52:08.020Z,9.73
2023-05-14T04:53:08.024Z,9.76
2023-05-14T04:54:08.071Z,9.77
2023-05-14T04:55:07.958Z,9.79
2023-05-14T04:56:07.951Z,9.80
2023-05-14T04:57:07.929Z,9.82
2023-05-14T04:58:07.943Z,9.82
2023-05-14T04:59:07.931Z,9.86
2023-05-14T05:00:07.907Z,9.87
2023-05-14T05:01:07.944Z,9.87
2023-05-14T05:02:07.863Z,9.92
2023-05-14T05:03:07.945Z,9.94
2023-05-14T05:04:08.055Z,9.97
2023-05-14T05:05:07.830Z,9.98
2023-05-14T05:06:07.819Z,9.99
2023-05-14T05:07:07.825Z,10.01
2023-05-14T05:08:07.792Z,10.02
2023-05-14T05:09:07.799Z,10.04
2023-05-14T05:10:07.789Z,10.07
2023-05-14T05:11:07.747Z,10.07
2023-05-14T05:12:07.743Z,10.10
2023-05-14T05:13:07.723Z,10.10
2023-05-14T05:14:07.731Z,10.10
2023-05-14T05:15:07.693Z,10.12
2023-05-14T05:16:07.734Z,10.13
2023-05-14T05:17:07.697Z,10.15
2023-05-14T05:18:07.901Z,10.19
2023-05-14T05:19:07.730Z,10.22
2023-05-14T05:20:07.650Z,10.25
2023-05-14T05:21:07.620Z,10.30
2023-05-14T05:22:07.587Z,10.30
2023-05-14T05:23:07.572Z,10.30
2023-05-14T05:24:07.577Z,10.30
2023-05-14T05:25:07.656Z,10.31
2023-05-14T05:26:07.553Z,10.31
2023-05-14T05:27:07.526Z,10.31
2023-05-14T05:28:07.519Z,10.33
2023-05-14T05:29:07.536Z,10.34
2023-05-14T05:30:07.505Z,10.37
2023-05-14T05:31:07.631Z,10.38
2023-05-14T05:32:07.475Z,10.38
2023-05-14T05:33:07.463Z,10.38
2023-05-14T05:34:07.439Z,10.40
2023-05-14T05:35:07.442Z,10.41
2023-05-14T05:36:07.403Z,10.42
2023-05-14T05:37:07.397Z,10.46
2023-05-14T05:38:07.382Z,10.49
2023-05-14T05:39:07.383Z,10.51
2023-05-14T05:40:07.374Z,10.54
2023-05-14T05:41:07.337Z,10.57
2023-05-14T05:42:07.327Z,10.59
2023-05-14T05:43:07.345Z,10.63
2023-05-14T05:44:07.291Z,10.61
2023-05-14T05:45:07.321Z,10.64
2023-05-14T05:46:07.299Z,10.68
2023-05-14T05:47:07.291Z,10.69
2023-05-14T05:48:07.349Z,10.72
2023-05-14T05:49:07.257Z,10.74
2023-05-14T05:50:07.222Z,10.76
2023-05-14T05:51:07.211Z,10.81
2023-05-14T05:52:07.214Z,10.86
2023-05-14T05:53:07.198Z,10.87
2023-05-14T05:54:07.150Z,10.87
2023-05-14T05:55:07.143Z,10.90
2023-05-14T05:56:07.152Z,10.94
2023-05-14T05:57:07.136Z,10.97
2023-05-14T05:58:07.147Z,11.00
2023-05-14T05:59:07.114Z,10.99
2023-05-14T06:00:07.097Z,11.00
2023-05-14T06:01:07.081Z,11.04
2023-05-14T06:02:07.077Z,11.08
2023-05-14T06:03:07.089Z,11.08
2023-05-14T06:04:07.069Z,11.11
2023-05-14T06:05:07.022Z,11.12
2023-05-14T06:06:07.001Z,11.15
2023-05-14T06:07:06.998Z,11.19
2023-05-14T06:08:07.008Z,11.23
2023-05-14T06:09:07.108Z,11.25
2023-05-14T06:10:06.943Z,11.29
2023-05-14T06:11:06.978Z,11.30
2023-05-14T06:12:06.928Z,11.33
2023-05-14T06:13:06.924Z,11.36
2023-05-14T06:14:06.893Z,11.37
2023-05-14T06:15:06.890Z,11.41
2023-05-14T06:16:06.936Z,11.41
2023-05-14T06:17:06.870Z,11.41
2023-05-14T06:18:06.869Z,11.44
2023-05-14T06:19:06.863Z,11.44
2023-05-14T06:20:06.822Z,11.45
2023-05-14T06:21:06.905Z,11.47
2023-05-14T06:22:06.791Z,11.48
2023-05-14T06:23:06.758Z,11.48
2023-05-14T06:24:06.766Z,11.48
2023-05-14T06:25:06.739Z,11.51
2023-05-14T06:26:06.788Z,11.51
2023-05-14T06:27:06.720Z,11.50
2023-05-14T06:28:06.701Z,11.51
2023-05-14T06:29:06.687Z,11.51
2023-05-14T06:30:06.699Z,11.52
2023-05-14T06:31:06.717Z,11.55
2023-05-14T06:32:06.690Z,11.54
2023-05-14T06:33:06.672Z,11.59
2023-05-14T06:34:06.649Z,11.57
2023-05-14T06:35:06.666Z,11.62
2023-05-14T06:36:06.596Z,11.60
2023-05-14T06:37:06.613Z,11.62
2023-05-14T06:38:06.588Z,11.63
2023-05-14T06:39:06.614Z,11.65
2023-05-14T06:40:06.541Z,11.69
2023-05-14T06:41:06.533Z,11.72
2023-05-14T06:42:06.518Z,11.77
2023-05-14T06:43:06.504Z,11.77
2023-05-14T06:44:06.503Z,11.81
2023-05-14T06:45:06.613Z,11.83
2023-05-14T06:46:06.485Z,11.81
2023-05-14T06:47:06.465Z,11.81
2023-05-14T06:48:06.470Z,11.83
2023-05-14T06:49:06.482Z,11.83
2023-05-14T06:50:06.754Z,11.84
2023-05-14T06:51:06.454Z,11.83
2023-05-14T06:52:06.392Z,11.84
2023-05-14T06:53:06.381Z,11.86
2023-05-14T06:54:06.387Z,11.87
2023-05-14T06:55:06.398Z,11.87
2023-05-14T06:56:06.332Z,11.88
2023-05-14T06:57:06.329Z,11.91
2023-05-14T06:58:06.304Z,11.94
2023-05-14T06:59:06.308Z,11.94
2023-05-14T07:00:06.286Z,11.97
2023-05-14T07:01:06.310Z,11.99
2023-05-14T07:02:06.249Z,12.02
2023-05-14T07:03:06.302Z,12.02
2023-05-14T07:04:06.326Z,12.03
2023-05-14T07:05:06.205Z,12.04
2023-05-14T07:06:06.206Z,12.06
2023-05-14T07:07:06.200Z,12.09
2023-05-14T07:08:06.161Z,12.12
2023-05-14T07:09:06.195Z,12.13
2023-05-14T07:10:06.144Z,12.15
2023-05-14T07:11:06.128Z,12.17
2023-05-14T07:12:06.137Z,12.20
2023-05-14T07:13:06.103Z,12.20
2023-05-14T07:14:06.093Z,12.21
2023-05-14T07:15:06.074Z,12.21
2023-05-14T07:16:06.074Z,12.24
2023-05-14T07:17:06.082Z,12.27
2023-05-14T07:18:06.089Z,12.27
2023-05-14T07:19:06.190Z,12.29
2023-05-14T07:20:05.993Z,12.31
2023-05-14T07:21:05.991Z,12.31
2023-05-14T07:22:06.016Z,12.32
2023-05-14T07:23:05.989Z,12.31
2023-05-14T07:24:05.986Z,12.32
2023-05-14T07:25:05.952Z,12.31
2023-05-14T07:26:05.944Z,12.31
2023-05-14T07:27:05.910Z,12.31
2023-05-14T07:28:05.918Z,12.31
2023-05-14T07:29:05.889Z,12.29
2023-05-14T07:30:05.869Z,12.31
2023-05-14T07:31:05.884Z,12.31
2023-05-14T07:32:05.872Z,12.31
2023-05-14T07:33:05.926Z,12.35
2023-05-14T07:34:05.807Z,12.35
2023-05-14T07:35:05.833Z,12.32
2023-05-14T07:36:05.788Z,12.29
2023-05-14T07:37:05.772Z,12.28
2023-05-14T07:38:05.805Z,12.28
2023-05-14T07:39:05.750Z,12.27
2023-05-14T07:40:05.815Z,12.28
2023-05-14T07:41:05.756Z,12.29
2023-05-14T07:42:05.734Z,12.28
2023-05-14T07:43:05.696Z,12.31
2023-05-14T07:44:05.740Z,12.32
2023-05-14T07:45:05.743Z,12.36
2023-05-14T07:46:05.653Z,12.37
2023-05-14T07:47:05.701Z,12.39
2023-05-14T07:48:05.758Z,12.42
2023-05-14T07:49:05.642Z,12.42
2023-05-14T07:50:05.614Z,12.46
2023-05-14T07:51:05.622Z,12.46
2023-05-14T07:52:05.585Z,12.49
2023-05-14T07:53:05.558Z,12.50
2023-05-14T07:54:05.548Z,12.54
2023-05-14T07:55:05.554Z,12.57
2023-05-14T07:56:05.532Z,12.60
2023-05-14T07:57:05.516Z,12.60
2023-05-14T07:58:05.489Z,12.61
2023-05-14T07:59:05.482Z,12.62
2023-05-14T08:00:05.510Z,12.64
2023-05-14T08:01:05.450Z,12.68
2023-05-14T08:02:05.490Z,12.70
2023-05-14T08:03:05.620Z,12.70
2023-05-14T08:04:05.438Z,12.73
2023-05-14T08:05:05.437Z,12.75
2023-05-14T08:06:05.390Z,12.76
2023-05-14T08:07:05.382Z,12.80
2023-05-14T08:08:05.364Z,12.83
2023-05-14T08:09:05.352Z,12.85
2023-05-14T08:10:05.344Z,12.86
2023-05-14T08:11:05.565Z,12.87
2023-05-14T08:12:05.317Z,12.90
2023-05-14T08:13:05.306Z,12.91
2023-05-14T08:14:05.286Z,12.91
2023-05-14T08:15:05.272Z,12.94
2023-05-14T08:16:05.303Z,12.95
2023-05-14T08:17:05.297Z,12.97
2023-05-14T08:18:05.268Z,13.00
2023-05-14T08:19:05.316Z,13.04
2023-05-14T08:20:05.232Z,13.09
2023-05-14T08:21:05.194Z,13.09
2023-05-14T08:22:05.188Z,13.13
2023-05-14T08:23:05.225Z,13.13
2023-05-14T08:24:05.160Z,13.13
2023-05-14T08:25:05.127Z,13.16
2023-05-14T08:26:05.168Z,13.18
2023-05-14T08:27:05.179Z,13.20
2023-05-14T08:28:05.098Z,13.23
2023-05-14T08:29:05.078Z,13.23
2023-05-14T08:30:05.103Z,13.28
2023-05-14T08:31:05.142Z,13.30
2023-05-14T08:32:12.117Z,13.33
2023-05-14T08:33:05.099Z,13.35
2023-05-14T08:34:05.037Z,13.33
2023-05-14T08:35:05.012Z,13.37
2023-05-14T08:36:05.042Z,13.38
2023-05-14T08:37:05.002Z,13.39
2023-05-14T08:38:04.982Z,13.42
2023-05-14T08:39:04.941Z,13.42
2023-05-14T08:40:04.944Z,13.42
2023-05-14T08:41:05.032Z,13.44
2023-05-14T08:42:04.941Z,13.44
2023-05-14T08:43:04.901Z,13.46
2023-05-14T08:44:04.883Z,13.49
2023-05-14T08:45:04.869Z,13.50
2023-05-14T08:46:04.862Z,13.53
2023-05-14T08:47:04.869Z,13.57
2023-05-14T08:48:05.013Z,13.62
2023-05-14T08:49:04.945Z,13.65
2023-05-14T08:50:04.819Z,13.67
2023-05-14T08:51:04.782Z,13.70
2023-05-14T08:52:04.781Z,13.74
2023-05-14T08:53:04.800Z,13.74
2023-05-14T08:54:04.739Z,13.75
2023-05-14T08:55:04.765Z,13.77
2023-05-14T08:56:04.706Z,13.77
2023-05-14T08:57:04.721Z,13.77
2023-05-14T08:58:04.726Z,13.77
2023-05-14T08:59:04.661Z,13.75
2023-05-14T09:00:04.658Z,13.74
2023-05-14T09:01:04.659Z,13.74
2023-05-14T09:02:04.761Z,13.71
2023-05-14T09:03:04.641Z,13.72
2023-05-14T09:04:04.658Z,13.72
2023-05-14T09:05:04.599Z,13.68
2023-05-14T09:06:04.600Z,13.65
2023-05-14T09:07:04.573Z,13.68
2023-05-14T09:08:04.555Z,13.65
2023-05-14T09:09:04.545Z,13.63
2023-05-14T09:10:04.592Z,13.65
2023-05-14T09:11:04.541Z,13.65
2023-05-14T09:12:04.514Z,13.67
2023-05-14T09:13:04.536Z,13.65
2023-05-14T09:14:04.484Z,13.63
2023-05-14T09:15:04.498Z,13.63
2023-05-14T09:16:04.469Z,13.60
2023-05-14T09:17:04.448Z,13.59
2023-05-14T09:18:04.447Z,13.57
2023-05-14T09:19:04.466Z,13.56
2023-05-14T09:20:04.426Z,13.57
2023-05-14T09:21:04.406Z,13.57
2023-05-14T09:22:04.374Z,13.59
2023-05-14T09:23:04.355Z,13.59
2023-05-14T09:24:04.422Z,13.59
2023-05-14T09:25:04.353Z,13.54
2023-05-14T09:26:04.333Z,13.50
2023-05-14T09:27:04.314Z,13.52
2023-05-14T09:28:04.315Z,13.50
2023-05-14T09:29:04.274Z,13.42
2023-05-14T09:30:04.258Z,13.42
2023-05-14T09:31:04.327Z,13.42
2023-05-14T09:32:04.333Z,13.42
2023-05-14T09:33:04.315Z,13.41
2023-05-14T09:34:04.196Z,13.41
2023-05-14T09:35:04.180Z,13.41
2023-05-14T09:36:04.188Z,13.41
2023-05-14T09:37:04.176Z,13.41
2023-05-14T09:38:04.196Z,13.41
2023-05-14T09:39:04.133Z,13.42
2023-05-14T09:40:04.165Z,13.46
2023-05-14T09:41:04.155Z,13.47
2023-05-14T09:42:04.098Z,13.46
2023-05-14T09:43:04.104Z,13.42
2023-05-14T09:44:06.103Z,13.42
2023-05-14T09:45:04.080Z,13.41
2023-05-14T09:46:04.140Z,13.44
2023-05-14T09:47:04.068Z,13.47
2023-05-14T09:48:04.130Z,13.49
2023-05-14T09:49:04.036Z,13.49
2023-05-14T09:50:04.014Z,13.49
2023-05-14T09:51:04.771Z,13.49
2023-05-14T09:52:03.975Z,13.52
2023-05-14T09:53:04.962Z,13.56
2023-05-14T09:54:03.943Z,13.57
2023-05-14T09:55:03.911Z,13.59
2023-05-14T09:56:03.920Z,13.62
2023-05-14T09:57:03.917Z,13.63
2023-05-14T09:58:03.892Z,13.65
2023-05-14T09:59:03.875Z,13.68
2023-05-14T10:00:03.876Z,13.71
2023-05-14T10:01:03.902Z,13.70
2023-05-14T10:02:03.842Z,13.74
2023-05-14T10:03:03.897Z,13.72
2023-05-14T10:04:03.839Z,13.74
2023-05-14T10:05:03.785Z,13.74
2023-05-14T10:06:03.782Z,13.71
2023-05-14T10:07:03.784Z,13.65
2023-05-14T10:08:03.737Z,13.67
2023-05-14T10:09:03.731Z,13.67
2023-05-14T10:10:03.712Z,13.67
2023-05-14T10:11:03.727Z,13.68
2023-05-14T10:12:03.720Z,13.65
2023-05-14T10:13:03.684Z,13.63
2023-05-14T10:14:03.689Z,13.67
2023-05-14T10:15:03.663Z,13.65
2023-05-14T10:16:03.663Z,13.63
2023-05-14T10:17:03.672Z,13.67
2023-05-14T10:18:03.653Z,13.68
2023-05-14T10:19:03.666Z,13.71
2023-05-14T10:20:03.590Z,13.72
2023-05-14T10:21:03.648Z,13.72
2023-05-14T10:22:03.562Z,13.72
2023-05-14T10:23:03.582Z,13.74
2023-05-14T10:24:03.518Z,13.75
2023-05-14T10:25:03.539Z,13.75
2023-05-14T10:26:03.506Z,13.72
2023-05-14T10:27:03.486Z,13.71
2023-05-14T10:28:03.513Z,13.72
2023-05-14T10:29:03.473Z,13.72
2023-05-14T10:30:03.454Z,13.71
2023-05-14T10:31:03.432Z,13.71
2023-05-14T10:32:03.424Z,13.71
2023-05-14T10:33:03.484Z,13.71
2023-05-14T10:34:03.429Z,13.70
2023-05-14T10:35:03.374Z,13.74
2023-05-14T10:36:03.374Z,13.74
2023-05-14T10:37:03.350Z,13.74
2023-05-14T10:38:03.364Z,13.74
2023-05-14T10:39:03.346Z,13.72
2023-05-14T10:40:03.373Z,13.72
2023-05-14T10:41:03.299Z,13.71
2023-05-14T10:42:03.305Z,13.72
2023-05-14T10:43:03.275Z,13.74
2023-05-14T10:44:03.259Z,13.78
2023-05-14T10:45:03.245Z,13.83
2023-05-14T10:46:03.382Z,13.86
2023-05-14T10:47:03.340Z,13.92
2023-05-14T10:48:03.243Z,13.96
2023-05-14T10:49:03.182Z,14.00
2023-05-14T10:50:03.241Z,14.07
2023-05-14T10:51:03.262Z,14.10
2023-05-14T10:52:03.150Z,14.12
2023-05-14T10:53:03.151Z,14.18
2023-05-14T10:54:03.176Z,14.25
2023-05-14T10:55:03.836Z,14.30
2023-05-14T10:56:03.180Z,14.35
2023-05-14T10:57:03.093Z,14.37
2023-05-14T10:58:03.156Z,14.43
2023-05-14T10:59:03.149Z,14.45
2023-05-14T11:00:03.166Z,14.47
2023-05-14T11:01:03.028Z,14.48
2023-05-14T11:02:03.057Z,14.48
2023-05-14T11:03:03.048Z,14.48
2023-05-14T11:04:03.052Z,14.48
2023-05-14T11:05:03.011Z,14.45
2023-05-14T11:06:02.975Z,14.47
2023-05-14T11:07:02.949Z,14.51
2023-05-14T11:08:02.945Z,14.53
2023-05-14T11:09:02.942Z,14.55
2023-05-14T11:10:02.894Z,14.58
2023-05-14T11:11:02.899Z,14.59
2023-05-14T11:12:02.890Z,14.63
2023-05-14T11:13:02.867Z,14.66
2023-05-14T11:14:02.858Z,14.70
2023-05-14T11:15:02.879Z,14.77
2023-05-14T11:16:15.153Z,14.78
2023-05-14T11:17:02.856Z,14.78
2023-05-14T11:18:02.894Z,14.82
2023-05-14T11:19:02.907Z,14.86
2023-05-14T11:20:02.792Z,14.89
2023-05-14T11:21:02.792Z,14.89
2023-05-14T11:22:02.796Z,14.94
2023-05-14T11:23:02.764Z,14.97
2023-05-14T11:24:02.726Z,14.97
2023-05-14T11:25:02.722Z,14.96
2023-05-14T11:26:02.767Z,14.96
2023-05-14T11:27:02.702Z,14.92
2023-05-14T11:28:02.674Z,14.94
2023-05-14T11:29:02.666Z,14.94
2023-05-14T11:30:02.672Z,14.92
2023-05-14T11:31:02.630Z,14.92
2023-05-14T11:32:02.749Z,14.99
2023-05-14T11:33:02.691Z,15.00
2023-05-14T11:34:02.590Z,15.00
2023-05-14T11:35:02.609Z,15.00
2023-05-14T11:36:02.594Z,15.00
2023-05-14T11:37:02.550Z,15.02
2023-05-14T11:38:02.526Z,15.09
2023-05-14T11:39:02.562Z,15.15
2023-05-14T11:40:02.532Z,15.18
2023-05-14T11:41:02.499Z,15.21
2023-05-14T11:42:02.516Z,15.21
2023-05-14T11:43:02.483Z,15.19
2023-05-14T11:44:02.466Z,15.18
2023-05-14T11:45:02.448Z,15.17
2023-05-14T11:46:02.560Z,15.15
2023-05-14T11:47:02.414Z,15.09
2023-05-14T11:48:02.451Z,15.06
2023-05-14T11:49:02.397Z,15.04
2023-05-14T11:50:02.399Z,15.04
2023-05-14T11:51:02.416Z,15.07
2023-05-14T11:52:02.356Z,15.06
2023-05-14T11:53:02.393Z,15.03
2023-05-14T11:54:02.332Z,15.03
2023-05-14T11:55:02.333Z,15.02
2023-05-14T11:56:02.307Z,14.99
2023-05-14T11:57:02.287Z,15.00
2023-05-14T11:58:02.308Z,14.99
2023-05-14T11:59:02.256Z,14.96
2023-05-14T12:00:02.281Z,14.96
2023-05-14T12:01:02.261Z,14.96
2023-05-14T12:02:02.323Z,14.92
2023-05-14T12:03:02.263Z,14.92
2023-05-14T12:04:02.293Z,14.89
2023-05-14T12:05:02.194Z,14.86
2023-05-14T12:06:02.243Z,14.86
2023-05-14T12:07:02.144Z,14.88
2023-05-14T12:08:02.175Z,14.88
2023-05-14T12:09:02.133Z,14.92
2023-05-14T12:10:02.119Z,14.96
2023-05-14T12:11:02.109Z,14.96
2023-05-14T12:12:02.082Z,14.97
2023-05-14T12:13:02.085Z,14.96
2023-05-14T12:14:02.080Z,14.99
2023-05-14T12:15:02.051Z,15.03
2023-05-14T12:16:02.311Z,15.04
2023-05-14T12:17:02.028Z,15.11
2023-05-14T12:18:02.895Z,15.19
2023-05-14T12:19:02.037Z,15.29
2023-05-14T12:20:02.017Z,15.35
2023-05-14T12:21:01.976Z,15.40
2023-05-14T12:22:01.990Z,15.47
2023-05-14T12:23:01.945Z,15.49
2023-05-14T12:24:01.942Z,15.47
2023-05-14T12:25:01.947Z,15.46
2023-05-14T12:26:01.904Z,15.47
2023-05-14T12:27:01.914Z,15.43
2023-05-14T12:28:01.897Z,15.44
2023-05-14T12:29:01.877Z,15.44
2023-05-14T12:30:12.980Z,15.46
2023-05-14T12:31:01.864Z,15.46
2023-05-14T12:32:01.817Z,15.43
2023-05-14T12:33:01.838Z,15.40
2023-05-14T12:34:01.802Z,15.40
2023-05-14T12:35:01.790Z,15.39
2023-05-14T12:36:19.723Z,15.40
2023-05-14T12:37:01.845Z,15.40
2023-05-14T12:38:01.736Z,15.46
2023-05-14T12:39:01.748Z,15.54
2023-05-14T12:40:01.721Z,15.59
2023-05-14T12:41:01.724Z,15.65
2023-05-14T12:42:01.712Z,15.73
2023-05-14T12:43:01.662Z,15.73
2023-05-14T12:44:01.680Z,15.73
2023-05-14T12:45:01.678Z,15.72
2023-05-14T12:46:01.658Z,15.73
2023-05-14T12:47:01.645Z,15.70
2023-05-14T12:48:01.625Z,15.64
2023-05-14T12:49:01.626Z,15.62
2023-05-14T12:50:01.610Z,15.64
2023-05-14T12:51:01.581Z,15.65
2023-05-14T12:52:19.428Z,15.67
2023-05-14T12:53:01.554Z,15.68
2023-05-14T12:54:01.564Z,15.67
2023-05-14T12:55:01.631Z,15.65
2023-05-14T12:56:01.499Z,15.64
2023-05-14T12:57:01.489Z,15.65
2023-05-14T12:58:01.479Z,15.67
2023-05-14T12:59:01.467Z,15.70
2023-05-14T13:00:01.468Z,15.65
2023-05-14T13:01:01.603Z,15.62
2023-05-14T13:02:01.413Z,15.61
2023-05-14T13:03:01.440Z,15.58